地図

経路データ

SID SEASON NUMBER BASIN SUBBASIN NAME ISO_TIME NATURE LAT LON WMO_WIND WMO_PRES WMO_AGENCY TRACK_TYPE DIST2LAND LANDFALL IFLAG USA_AGENCY USA_ATCF_ID USA_LAT USA_LON USA_RECORD USA_STATUS USA_WIND USA_PRES USA_SSHS USA_R34_NE USA_R34_SE USA_R34_SW USA_R34_NW USA_R50_NE USA_R50_SE USA_R50_SW USA_R50_NW USA_R64_NE USA_R64_SE USA_R64_SW USA_R64_NW USA_POCI USA_ROCI USA_RMW USA_EYE TOKYO_LAT TOKYO_LON TOKYO_GRADE TOKYO_WIND TOKYO_PRES TOKYO_R50_DIR TOKYO_R50_LONG TOKYO_R50_SHORT TOKYO_R30_DIR TOKYO_R30_LONG TOKYO_R30_SHORT TOKYO_LAND CMA_LAT CMA_LON CMA_CAT CMA_WIND CMA_PRES HKO_LAT HKO_LON HKO_CAT HKO_WIND HKO_PRES NEWDELHI_LAT NEWDELHI_LON NEWDELHI_GRADE NEWDELHI_WIND NEWDELHI_PRES NEWDELHI_CI NEWDELHI_DP NEWDELHI_POCI REUNION_LAT REUNION_LON REUNION_TYPE REUNION_WIND REUNION_PRES REUNION_TNUM REUNION_CI REUNION_RMW REUNION_R34_NE REUNION_R34_SE REUNION_R34_SW REUNION_R34_NW REUNION_R50_NE REUNION_R50_SE REUNION_R50_SW REUNION_R50_NW REUNION_R64_NE REUNION_R64_SE REUNION_R64_SW REUNION_R64_NW BOM_LAT BOM_LON BOM_TYPE BOM_WIND BOM_PRES BOM_TNUM BOM_CI BOM_RMW BOM_R34_NE BOM_R34_SE BOM_R34_SW BOM_R34_NW BOM_R50_NE BOM_R50_SE BOM_R50_SW BOM_R50_NW BOM_R64_NE BOM_R64_SE BOM_R64_SW BOM_R64_NW BOM_ROCI BOM_POCI BOM_EYE BOM_POS_METHOD BOM_PRES_METHOD NADI_LAT NADI_LON NADI_CAT NADI_WIND NADI_PRES WELLINGTON_LAT WELLINGTON_LON WELLINGTON_WIND WELLINGTON_PRES DS824_LAT DS824_LON DS824_STAGE DS824_WIND DS824_PRES TD9636_LAT TD9636_LON TD9636_STAGE TD9636_WIND TD9636_PRES TD9635_LAT TD9635_LON TD9635_WIND TD9635_PRES TD9635_ROCI NEUMANN_LAT NEUMANN_LON NEUMANN_CLASS NEUMANN_WIND NEUMANN_PRES MLC_LAT MLC_LON MLC_CLASS MLC_WIND MLC_PRES USA_GUST BOM_GUST BOM_GUST_PER REUNION_GUST REUNION_GUST_PER USA_SEAHGT USA_SEARAD_NE USA_SEARAD_SE USA_SEARAD_SW USA_SEARAD_NW STORM_SPEED STORM_DIR
1981354S12140 1982 118 SP EA NOT_NAMED 1981-12-19 23:00:00 NR -11.7000 140.300 25 1004 bom main 162 162 ______O_______ -1 -11.7000 140.300 20 25 1004 1.50000 45 45 19 254
1981354S12140 1982 118 SP EA NOT_NAMED 1981-12-20 00:00:00 TS -11.7898 139.986 main 190 190 ______P_____O_ -1 -11.7847 139.978 20 25 1003 -11.8000 140.000 TC 20 1004 18 259
1981354S12140 1982 118 SP EA NOT_NAMED 1981-12-20 02:00:00 TS -11.8752 139.396 25 1001 bom main 251 243 ______O_____P_ -1 -11.9000 139.400 20 25 1001 2.00000 -11.8380 139.390 TC 25 1001 45 45 17 263
1981354S12140 1982 118 SP EA NOT_NAMED 1981-12-20 03:00:00 TS -11.8869 139.135 main 232 190 ______P_____P_ -1 -11.9103 139.171 20 26 1000 -11.8557 139.088 TC 27 1001 15 269
1981354S12140 1982 118 SP EA NOT_NAMED 1981-12-20 05:00:00 TS -11.8935 138.646 30 998 bom main 179 158 ______O_____P_ -1 -11.9000 138.800 20 30 998 2.00000 -11.8870 138.492 TC 32 998 45 45 14 268
1981354S12140 1982 118 SP EA NOT_NAMED 1981-12-20 06:00:00 TS -11.9154 138.410 main 158 113 ______P_____O_ -1 -11.9308 138.620 20 33 996 -11.9000 138.200 TC 35 998 13 264
1981354S12140 1982 118 SP EA NOT_NAMED 1981-12-20 08:00:00 TS -11.9611 137.965 40 994 bom main 113 93 ______O_____P_ -1 -12.0000 138.300 30 40 994 2.00000 -11.9221 137.631 TC 38 995 55 55 13 265
1981354S12140 1982 118 SP EA NOT_NAMED 1981-12-20 09:00:00 TS -11.9697 137.758 main 93 54 ______P_____P_ -1 -12.0048 138.165 30 41 992 -11.9346 137.350 TC 40 994 12 268
1981354S12140 1982 118 SP EA NOT_NAMED 1981-12-20 11:00:00 TS -11.9859 137.343 45 990 bom main 46 40 ______O_____P_ -1 -12.0000 137.900 30 45 990 2.50000 -11.9717 136.786 TC 43 991 64 64 12 267
1981354S12140 1982 118 SP EA NOT_NAMED 1981-12-20 12:00:00 TS -12.0062 137.129 main 35 0 ______P_____O_ -1 -12.0123 137.759 30 44 990 -12.0000 136.500 TC 45 990 14 261
1981354S12140 1982 118 SP EA NOT_NAMED 1981-12-20 15:00:00 TS -12.1247 136.414 main 0 0 ______P_____P_ -1 -12.0996 137.228 30 41 993 -12.1499 135.600 TC 42 992 15 260
1981354S12140 1982 118 SP EA NOT_NAMED 1981-12-20 17:00:00 TS -12.2280 135.849 40 995 bom main 0 0 ______O_____P_ -1 -12.2000 136.700 30 40 995 -12.2561 134.997 TC 40 994 55 55 17 259
1981354S12140 1982 118 SP EA NOT_NAMED 1981-12-20 18:00:00 TS -12.2868 135.545 main 0 0 ______P_____O_ -1 -12.2736 136.390 30 35 996 -12.3000 134.700 TC 40 995 20 261
1981354S12140 1982 118 SI WA NOT_NAMED 1981-12-20 20:00:00 TS -12.3827 134.852 25 1001 bom main 0 0 ______O_____P_ -1 -12.4000 135.600 20 25 1001 -12.3653 134.104 TC 33 998 45 45 22 264
1981354S12140 1982 118 SI WA NOT_NAMED 1981-12-20 21:00:00 TS -12.4045 134.440 main 0 0 ______P_____P_ -1 -12.4216 135.068 20 25 1001 -12.3874 133.813 TC 30 999 24 269
1981354S12140 1982 118 SI WA NOT_NAMED 1981-12-20 23:00:00 TS -12.4028 133.629 25 1004 bom main 0 0 ______O_____P_ -1 -12.4000 134.000 20 25 1004 -12.4057 133.258 TC 23 1002 45 45 22 271
1981354S12140 1982 118 SI WA NOT_NAMED 1981-12-21 00:00:00 TS -12.3871 133.328 main 0 0 ______P_____O_ -1 -12.3741 133.656 20 25 1004 -12.4000 133.000 TC 20 1004 16 275
1981354S12140 1982 118 SI WA NOT_NAMED 1981-12-21 02:00:00 TS -12.3284 132.815 25 1005 bom main 0 0 ______O_____P_ -1 -12.3000 133.100 20 25 1005 -12.3567 132.530 TC 20 1004 45 45 16 277
1981354S12140 1982 118 SI WA NOT_NAMED 1981-12-21 03:00:00 TS -12.2917 132.523 main 0 0 ______P_____P_ -1 -12.2613 132.733 20 25 1005 -12.3222 132.312 TC 20 1004 17 277
1981354S12140 1982 118 SI WA NOT_NAMED 1981-12-21 05:00:00 TS -12.2205 131.950 25 1005 bom main 11 11 ______O_____P_ -1 -12.2000 132.000 20 25 1005 -12.2410 131.900 TC 20 1004 45 45 16 277
1981354S12140 1982 118 SI WA NOT_NAMED 1981-12-21 06:00:00 TS -12.1987 131.702 main 11 0 ______P_____O_ -1 -12.1974 131.704 20 25 1005 -12.2000 131.700 TC 20 1005 14 274
1981354S12140 1982 118 SI WA NOT_NAMED 1981-12-21 08:00:00 TS -12.1747 131.249 25 1005 bom main 0 0 ______O_____P_ -1 -12.2000 131.200 20 25 1005 -12.1494 131.298 TC 18 1004 45 45 13 274
1981354S12140 1982 118 SI WA NOT_NAMED 1981-12-21 09:00:00 TS -12.1511 131.021 main 11 11 ______P_____P_ -1 -12.1800 130.942 20 25 1005 -12.1223 131.100 TC 17 1004 13 279
1981354S12140 1982 118 SI WA NOT_NAMED 1981-12-21 11:00:00 TS -12.0752 130.602 25 1005 bom main 33 22 ______O_____P_ -1 -12.1000 130.500 20 25 1005 1.50000 -12.0503 130.703 TC 15 1004 45 45 12 283
1981354S12140 1982 118 SI WA NOT_NAMED 1981-12-21 12:00:00 TS -12.0206 130.427 main 22 11 ______P_____O_ -1 -12.0411 130.354 20 25 1005 -12.0000 130.500 TC 15 1004 11 292
1981354S12140 1982 118 SI WA NOT_NAMED 1981-12-21 14:00:00 TS -11.8731 130.085 25 1005 bom main 11 10 ______O_____P_ -1 -11.9000 130.100 20 25 1005 2.00000 -11.8461 130.069 TC 16 1004 45 45 12 293
1981354S12140 1982 118 SI WA NOT_NAMED 1981-12-21 15:00:00 TS -11.7954 129.883 main 21 21 ______P_____P_ -1 -11.8333 129.916 20 25 1003 -11.7575 129.850 TC 17 1004 13 291
1981354S12140 1982 118 SI WA NOT_NAMED 1981-12-21 17:00:00 TS -11.6399 129.457 25 1000 bom main 66 66 ______O_____P_ -1 -11.7000 129.500 20 25 1000 2.00000 -11.5798 129.413 TC 19 1004 45 45 13 290
1981354S12140 1982 118 SI WA NOT_NAMED 1981-12-21 18:00:00 TS -11.5693 129.255 main 87 87 ______P_____O_ -1 -11.6387 129.311 20 26 999 -11.5000 129.200 TC 20 1005 13 289
1981354S12140 1982 118 SI WA NOT_NAMED 1981-12-21 20:00:00 TS -11.4311 128.849 30 998 bom main 142 142 ______O_____P_ -1 -11.5000 128.900 20 30 998 2.50000 -11.3623 128.798 TC 21 1003 45 45 13 290
1981354S12140 1982 118 SI WA NOT_NAMED 1981-12-21 21:00:00 TS -11.3482 128.627 main 165 165 ______P_____P_ -1 -11.3916 128.654 20 30 998 -11.3048 128.600 TC 22 1003 14 288
1981354S12140 1982 118 SI WA NOT_NAMED 1981-12-21 23:00:00 TS -11.2109 128.152 30 998 bom main 209 209 ______O_____P_ -1 -11.2000 128.100 20 30 998 2.50000 -11.2218 128.203 TC 24 1002 45 45 15 283
1981354S12140 1982 118 SI WA NOT_NAMED 1981-12-22 00:00:00 TS -11.1827 127.901 main 242 242 ______P_____O_ -1 -11.1654 127.803 20 30 994 -11.2000 128.000 TC 25 1002 15 271
1981354S12140 1982 118 SI WA NOT_NAMED 1981-12-22 02:00:00 TS -11.1981 127.385 30 988 bom main 265 258 ______O_____P_ -1 -11.2000 127.200 20 30 988 2.50000 -11.1963 127.569 TC 26 1001 45 45 15 266
1981354S12140 1982 118 SI WA NOT_NAMED 1981-12-22 03:00:00 TS -11.2371 127.138 main 255 255 ______P_____P_ -1 -11.2617 126.926 20 33 989 -11.2125 127.350 TC 27 1001 15 259
1981354S12140 1982 118 SI WA NOT_NAMED 1981-12-22 05:00:00 TS -11.3335 126.657 40 992 bom main 258 250 ______O_____P_ -1 -11.4000 126.400 30 40 992 3.00000 -11.2671 126.914 TC 29 1000 55 55 14 260
1981354S12140 1982 118 SI WA NOT_NAMED 1981-12-22 06:00:00 TS -11.3579 126.411 main 250 219 ______P_____O_ -1 -11.4158 126.122 30 40 992 -11.3000 126.700 TC 30 1000 14 266
1981354S12140 1982 118 SI WA NOT_NAMED 1981-12-22 08:00:00 TS -11.3793 125.946 40 992 bom main 211 203 ______O_____P_ -1 -11.4000 125.600 30 40 992 3.00000 -11.3586 126.292 TC 30 55 55 13 267
1981354S12140 1982 118 SI WA NOT_NAMED 1981-12-22 09:00:00 TS -11.3948 125.737 main 195 175 ______P_____P_ -1 -11.3972 125.382 30 40 992 -11.3923 126.093 TC 30 12 265
1981354S12140 1982 118 SI WA NOT_NAMED 1981-12-22 11:00:00 TS -11.4320 125.349 40 995 bom main 169 164 ______O_____P_ -1 -11.4000 125.000 30 40 995 3.00000 -11.4640 125.697 TC 30 55 55 12 264
1981354S12140 1982 118 SI WA NOT_NAMED 1981-12-22 12:00:00 TS -11.4566 125.153 main 174 149 ______P_____O_ -1 -11.4132 124.807 30 39 995 -11.5000 125.500 TC 30 12 261
1981354S12140 1982 118 SI WA NOT_NAMED 1981-12-22 15:00:00 TS -11.5499 124.573 main 149 136 ______P_____P_ -1 -11.4925 124.246 30 37 995 -11.6074 124.900 TC 30 11 260
1981354S12140 1982 118 SI WA NOT_NAMED 1981-12-22 18:00:00 TS -11.6500 124.000 35 995 bom main 136 136 ______O_____O_ -1 -11.6000 123.700 30 35 995 3.00000 -11.7000 124.300 TC 30 49 49 12 261
1981354S12140 1982 118 SI WA NOT_NAMED 1981-12-22 21:00:00 TS -11.7240 123.413 main 146 146 ______P_____P_ -1 -11.6979 123.149 30 35 995 -11.7500 123.677 TC 30 11 262
1981354S12140 1982 118 SI WA NOT_NAMED 1981-12-23 00:00:00 TS -11.8000 122.850 35 995 bom main 169 169 ______O_____O_ -1 -11.8000 122.600 30 35 995 3.00000 -11.8000 123.100 TC 30 49 49 11 261
1981354S12140 1982 118 SI WA NOT_NAMED 1981-12-23 03:00:00 TS -11.8962 122.316 main 213 213 ______P_____P_ -1 -11.9076 122.005 30 32 996 -11.8848 122.627 TC 30 10 258
1981354S12140 1982 118 SI WA NOT_NAMED 1981-12-23 06:00:00 TS -12.0000 121.900 30 998 bom main 240 234 ______O_____O_ -1 -12.0000 121.500 20 30 998 2.50000 -12.0000 122.200 TC 30 45 45 8 253
1981354S12140 1982 118 SI WA NOT_NAMED 1981-12-23 09:00:00 TS -12.1199 121.563 main 234 229 ______P_____P_ -1 -12.0599 121.190 20 27 999 -12.1499 121.750 TC 30 7 248
1981354S12140 1982 118 SI WA NOT_NAMED 1981-12-23 12:00:00 TS -12.2600 121.240 25 1000 bom main 236 230 ______O_____O_ -1 -12.1000 121.000 20 25 1000 2.00000 -12.3000 121.300 TC 30 45 45 8 248
1981354S12140 1982 118 SI WA NOT_NAMED 1981-12-23 15:00:00 TS -12.3999 120.850 main 237 235 ____________P_ -1 20 -12.3999 120.850 TC 30 9 254
1981354S12140 1982 118 SI WA NOT_NAMED 1981-12-23 18:00:00 TS -12.5000 120.400 main 246 246 ____________O_ -1 -12.5000 120.400 TC 30 9 253
1981354S12140 1982 118 SI WA NOT_NAMED 1981-12-23 21:00:00 TS -12.6647 119.980 main 274 274 ____________P_ -1 -12.6647 119.980 TC 30 9 251
1981354S12140 1982 118 SI WA NOT_NAMED 1981-12-24 00:00:00 TS -12.8000 119.500 main 300 300 ____________O_ -1 -12.8000 119.500 TC 30 11 262
1981354S12140 1982 118 SI WA NOT_NAMED 1981-12-24 03:00:00 TS -12.8151 118.872 main 323 323 ____________P_ -1 -12.8151 118.872 TC 30 13 270
1981354S12140 1982 118 SI WA NOT_NAMED 1981-12-24 06:00:00 TS -12.8000 118.200 main 360 360 ____________O_ -1 -12.8000 118.200 TC 30 12 268
1981354S12140 1982 118 SI WA NOT_NAMED 1981-12-24 09:00:00 TS -12.8498 117.593 main 383 383 ____________P_ -1 -12.8498 117.593 TC 30 12 265
1981354S12140 1982 118 SI WA NOT_NAMED 1981-12-24 12:00:00 TS -12.9000 117.000 main 425 425 ____________O_ -1 -12.9000 117.000 TC 30 12 268
1981354S12140 1982 118 SI WA NOT_NAMED 1981-12-24 15:00:00 TS -12.8999 116.400 main 430 430 ____________P_ -1 -12.8999 116.400 TC 30 12 270
1981354S12140 1982 118 SI WA NOT_NAMED 1981-12-24 18:00:00 TS -12.9000 115.800 main 441 441 ____________O_ -1 -12.9000 115.800 TC 30 12 268
1981354S12140 1982 118 SI WA NOT_NAMED 1981-12-24 21:00:00 TS -12.9426 115.148 main 458 458 ____________P_ -1 -12.9426 115.148 TC 27 12 265
1981354S12140 1982 118 SI WA NOT_NAMED 1981-12-25 00:00:00 TS -13.0000 114.600 main 470 470 ____________O_ -1 -13.0000 114.600 TC 25 8 263
1981354S12140 1982 118 SI WA NOT_NAMED 1981-12-25 03:00:00 TS -13.0498 114.290 main 471 471 ____________P_ -1 -13.0498 114.290 TC 25 5 258
1981354S12140 1982 118 SI WA NOT_NAMED 1981-12-25 06:00:00 TS -13.1000 114.100 main 484 484 ____________O_ -1 -13.1000 114.100 TC 25 4 255
1981354S12140 1982 118 SI WA NOT_NAMED 1981-12-25 09:00:00 TS -13.1500 113.892 main 487 487 ____________P_ -1 -13.1500 113.892 TC 25 4 256
1981354S12140 1982 118 SI WA NOT_NAMED 1981-12-25 12:00:00 TS -13.2000 113.700 main 502 502 ____________O_ -1 -13.2000 113.700 TC 25 4 256
1981354S12140 1982 118 SI WA NOT_NAMED 1981-12-25 15:00:00 TS -13.2425 113.500 main 507 507 ____________P_ -1 -13.2425 113.500 TC 25 4 256
1981354S12140 1982 118 SI WA NOT_NAMED 1981-12-25 18:00:00 TS -13.3000 113.300 main 523 523 ____________O_ -1 -13.3000 113.300 TC 25 4 248
1981354S12140 1982 118 SI WA NOT_NAMED 1981-12-25 21:00:00 TS -13.4000 113.108 main 540 540 ____________P_ -1 -13.4000 113.108 TC 25 4 243
1981354S12140 1982 118 SI WA NOT_NAMED 1981-12-26 00:00:00 TS -13.5000 112.900 main 557 557 ____________O_ -1 -13.5000 112.900 TC 25 5 250
1981354S12140 1982 118 SI WA NOT_NAMED 1981-12-26 03:00:00 TS -13.5575 112.657 main 572 572 ____________P_ -1 -13.5575 112.657 TC 25 5 258
1981354S12140 1982 118 SI WA NOT_NAMED 1981-12-26 06:00:00 TS -13.6000 112.400 main 580 580 ____________O_ -1 -13.6000 112.400 TC 25 5 260
1981354S12140 1982 118 SI WA NOT_NAMED 1981-12-26 09:00:00 TS -13.6425 112.150 main 584 584 ____________P_ -1 -13.6425 112.150 TC 27 5 258
1981354S12140 1982 118 SI WA NOT_NAMED 1981-12-26 12:00:00 TS -13.7000 111.900 main 593 593 ____________O_ -1 -13.7000 111.900 TC 30 5 252
1981354S12140 1982 118 SI WA NOT_NAMED 1981-12-26 15:00:00 TS -13.8000 111.643 main 604 604 ____________P_ -1 -13.8000 111.643 TC 32 5 248
1981354S12140 1982 118 SI WA NOT_NAMED 1981-12-26 18:00:00 TS -13.9000 111.400 main 616 616 ____________O_ -1 -13.9000 111.400 TC 35 5 250
1981354S12140 1982 118 SI WA NOT_NAMED 1981-12-26 21:00:00 TS -13.9625 111.190 main 629 629 ____________P_ -1 -13.9625 111.190 TC 32 4 256
1981354S12140 1982 118 SI WA NOT_NAMED 1981-12-27 00:00:00 TS -14.0000 111.000 main 631 ____________O_ -1 -14.0000 111.000 TC 30 4 259

デジタル台風データ・検索

IBTrACS Databaseについて

本データベースは、米国NOAAが公開する1842年以降の世界の熱帯低気圧のベストトラックデータアーカイブInternational Best Track Archive for Climate Stewardship (IBTrACS)を、ウェブで閲覧しやすい形式に変換したものです。

最終更新日:2021-12-08